Aérodrome :







RETROUVEZ-NOUS SUR...

 
LOGIN :

S'inscrire | Disclaimer

   EN    FR    IT 

 









Légende :    VFR   VFR Marginal   IFR   IFR Intensif   IFR Très Intensif
Visi : 
Plafond : 
>= 8 km
>= 3000ft
5 à 8 km
1000 à 3000 ft
1500m à 5 km
500 à 1000 ft
800 à 1500m
200 à 500 ft
< 800m
< 200 ft
Symboles :   Orages  Brouillard  Fortes neiges  Fortes précipitations  Vent > 20 kt






- Altitude de l'aérodrome : 39 ft
- Code IATA : YNA


CYNA - Natashquan

DERNIER METAR :
  • 140900Z AUTO 29013KT 9SM CLR M07/M12 A3013 RMK SLP205

METARs EXPIRÉS :
  • 140800Z AUTO 29014G19KT 9SM CLR M07/M13 A3006 RMK PRESRR SLP183
  • 140700Z AUTO 29012KT 9SM CLR M07/M12 A3001 RMK SLP164

TAF TAF CYNA
Valide du 14 à 08h jusqu'au 14 à 20h UTC


140738Z 1408/1420 30012KT P6SM SKC
BECMG 1418/1420 22010KT RMK FCST BASED ON AUTO OBS. NXT FCST BY 141400Z



MET'MAP, la Météo Aéronautique d'un coup d'oeil ! - Copyright ORBIFLY Décembre 2007 - Disclaimer

ORBIFLY MET'MAP TEAM :

Programmation & Développement : Alexandra Zaïnal
Conception & Développement : Baudouin d'Aumeries
Co-Programmation & Développement : Marc-Olivier Méhu
Soutien technique & logistique : Manuel Goepfert

Contact : metmap@orbifly.com




SOURCES & CREDITS :

   NOAA